createdAt,value
2022-12-18T00:01:39.442Z,4.57
2022-12-18T00:04:07.672Z,4.45
2022-12-18T00:06:36.358Z,4.43
2022-12-18T00:09:04.420Z,4.40
2022-12-18T00:11:32.509Z,4.45
2022-12-18T00:14:00.573Z,4.50
2022-12-18T00:16:29.412Z,4.97
2022-12-18T00:19:01.068Z,4.50
2022-12-18T00:21:29.759Z,4.55
2022-12-18T00:23:57.414Z,4.15
2022-12-18T00:26:30.542Z,4.75
2022-12-18T00:29:01.460Z,4.40
2022-12-18T00:31:29.167Z,4.07
2022-12-18T00:33:56.588Z,4.40
2022-12-18T00:36:26.351Z,4.80
2022-12-18T00:38:54.839Z,4.45
2022-12-18T00:41:21.713Z,4.47
2022-12-18T00:43:48.422Z,4.25
2022-12-18T00:46:15.244Z,4.70
2022-12-18T00:48:42.048Z,4.28
2022-12-18T00:51:08.759Z,3.95
2022-12-18T00:53:35.789Z,4.60
2022-12-18T00:56:02.747Z,4.15
2022-12-18T00:58:29.474Z,4.20
2022-12-18T01:00:56.278Z,4.07
2022-12-18T01:03:23.062Z,3.85
2022-12-18T01:05:49.731Z,3.85
2022-12-18T01:08:16.453Z,4.18
2022-12-18T01:10:43.281Z,4.30
2022-12-18T01:13:10.000Z,4.22
2022-12-18T01:15:37.071Z,4.03
2022-12-18T01:18:07.524Z,3.78
2022-12-18T01:23:00.879Z,3.85
2022-12-18T01:25:27.616Z,3.83
2022-12-18T01:27:54.358Z,3.80
2022-12-18T01:30:21.248Z,4.15
2022-12-18T01:32:47.961Z,4.22
2022-12-18T01:35:14.709Z,4.07
2022-12-18T01:37:41.413Z,4.18
2022-12-18T01:40:08.872Z,4.03
2022-12-18T01:42:35.739Z,3.72
2022-12-18T01:45:17.748Z,3.75
2022-12-18T01:47:51.986Z,3.33
2022-12-18T01:50:18.755Z,3.55
2022-12-18T01:52:52.623Z,3.20
2022-12-18T01:55:23.288Z,3.83
2022-12-18T01:57:55.351Z,3.78
2022-12-18T02:00:23.653Z,3.55
2022-12-18T02:02:50.779Z,3.45
2022-12-18T02:05:43.690Z,3.55
2022-12-18T02:08:31.882Z,4.25
2022-12-18T02:11:45.810Z,3.60
2022-12-18T02:14:47.515Z,4.05
2022-12-18T02:17:47.774Z,3.35
2022-12-18T02:20:37.609Z,3.38
2022-12-18T02:23:22.627Z,3.75
2022-12-18T02:26:10.820Z,3.70
2022-12-18T02:28:44.105Z,3.38
2022-12-18T02:31:15.797Z,3.67
2022-12-18T02:33:45.836Z,3.50
2022-12-18T02:36:14.409Z,3.72
2022-12-18T02:38:43.477Z,3.35
2022-12-18T02:41:11.355Z,3.75
2022-12-18T02:43:38.391Z,3.55
2022-12-18T02:46:30.973Z,3.05
2022-12-18T02:49:12.823Z,3.45
2022-12-18T02:51:48.557Z,3.15
2022-12-18T02:54:28.153Z,3.45
2022-12-18T02:57:04.656Z,3.85
2022-12-18T02:59:45.803Z,3.78
2022-12-18T03:02:27.955Z,3.38
2022-12-18T03:05:06.362Z,4.00
2022-12-18T03:08:25.175Z,3.13
2022-12-18T03:11:03.676Z,3.10
2022-12-18T03:13:37.533Z,3.72
2022-12-18T03:16:08.651Z,3.53
2022-12-18T03:18:43.715Z,3.45
2022-12-18T03:21:12.469Z,3.53
2022-12-18T03:23:48.553Z,3.53
2022-12-18T03:26:20.108Z,3.58
2022-12-18T03:28:52.244Z,3.38
2022-12-18T03:31:21.361Z,3.38
2022-12-18T03:33:56.853Z,3.15
2022-12-18T03:36:24.514Z,3.30
2022-12-18T03:38:52.395Z,3.25
2022-12-18T03:41:43.199Z,3.28
2022-12-18T03:44:14.127Z,3.25
2022-12-18T03:46:56.644Z,3.42
2022-12-18T03:49:36.759Z,3.42
2022-12-18T03:52:09.481Z,3.30
2022-12-18T03:54:37.607Z,3.33
2022-12-18T03:57:12.927Z,3.38
2022-12-18T03:59:41.353Z,3.25
2022-12-18T04:02:09.547Z,2.88
2022-12-18T04:04:40.598Z,3.70
2022-12-18T04:07:08.271Z,2.88
2022-12-18T04:09:36.847Z,3.45
2022-12-18T04:12:03.903Z,3.13
2022-12-18T04:14:30.554Z,2.90
2022-12-18T04:16:57.211Z,3.10
2022-12-18T04:19:23.897Z,2.53
2022-12-18T04:21:50.605Z,3.08
2022-12-18T04:24:17.923Z,2.85
2022-12-18T04:26:44.609Z,3.10
2022-12-18T04:29:11.501Z,3.00
2022-12-18T04:31:38.426Z,3.13
2022-12-18T04:34:05.189Z,3.33
2022-12-18T04:36:31.928Z,3.38
2022-12-18T04:38:58.729Z,2.78
2022-12-18T04:41:25.447Z,3.22
2022-12-18T04:43:52.140Z,2.70
2022-12-18T04:46:19.032Z,3.00
2022-12-18T04:48:47.200Z,3.35
2022-12-18T04:51:14.075Z,3.25
2022-12-18T04:53:41.157Z,3.20
2022-12-18T04:56:14.153Z,3.10
2022-12-18T04:58:42.217Z,2.95
2022-12-18T05:01:09.591Z,2.97
2022-12-18T05:03:37.843Z,2.75
2022-12-18T05:06:06.045Z,2.90
2022-12-18T05:08:33.699Z,2.97
2022-12-18T05:11:03.180Z,2.65
2022-12-18T05:13:31.171Z,2.58
2022-12-18T05:15:58.484Z,3.13
2022-12-18T05:18:25.859Z,2.88
2022-12-18T05:20:54.443Z,3.05
2022-12-18T05:23:22.926Z,2.97
2022-12-18T05:25:57.628Z,3.20
2022-12-18T05:28:26.434Z,2.90
2022-12-18T05:30:55.208Z,2.80
2022-12-18T05:33:23.989Z,3.00
2022-12-18T05:35:55.419Z,2.90
2022-12-18T05:38:23.220Z,2.75
2022-12-18T05:40:51.327Z,2.67
2022-12-18T05:43:21.435Z,3.10
2022-12-18T05:48:16.405Z,2.83
2022-12-18T05:50:44.872Z,2.85
2022-12-18T05:53:11.977Z,3.10
2022-12-18T05:55:41.127Z,3.15
2022-12-18T05:58:10.074Z,2.65
2022-12-18T06:00:39.734Z,2.80
2022-12-18T06:03:07.802Z,2.90
2022-12-18T06:05:43.763Z,2.95
2022-12-18T06:08:11.484Z,3.17
2022-12-18T06:10:38.585Z,2.78
2022-12-18T06:13:24.103Z,2.92
2022-12-18T06:15:51.142Z,2.53
2022-12-18T06:18:17.996Z,2.90
2022-12-18T06:20:45.219Z,3.20
2022-12-18T06:23:11.984Z,2.90
2022-12-18T06:25:40.403Z,2.90
2022-12-18T06:28:07.241Z,3.28
2022-12-18T06:30:34.168Z,2.90
2022-12-18T06:33:00.884Z,3.40
2022-12-18T06:35:27.595Z,2.90
2022-12-18T06:37:54.377Z,3.17
2022-12-18T06:40:22.224Z,3.00
2022-12-18T06:42:49.346Z,2.97
2022-12-18T06:45:16.847Z,3.10
2022-12-18T06:47:43.833Z,3.20
2022-12-18T06:50:11.095Z,2.95
2022-12-18T06:52:38.108Z,3.20
2022-12-18T06:55:05.832Z,2.90
2022-12-18T06:57:35.419Z,3.10
2022-12-18T07:00:02.204Z,3.00
2022-12-18T07:02:29.072Z,3.10
2022-12-18T07:04:55.787Z,3.05
2022-12-18T07:07:22.708Z,3.20
2022-12-18T07:09:51.180Z,3.50
2022-12-18T07:12:18.400Z,3.50
2022-12-18T07:14:45.209Z,3.20
2022-12-18T07:17:11.921Z,3.47
2022-12-18T07:19:38.683Z,3.33
2022-12-18T07:22:05.413Z,3.10
2022-12-18T07:24:34.387Z,2.95
2022-12-18T07:27:01.956Z,3.50
2022-12-18T07:29:28.800Z,3.45
2022-12-18T07:31:55.583Z,3.33
2022-12-18T07:34:22.467Z,3.00
2022-12-18T07:36:49.500Z,3.22
2022-12-18T07:42:00.491Z,3.35
2022-12-18T07:44:27.198Z,2.80
2022-12-18T07:46:53.878Z,3.28
2022-12-18T07:49:20.616Z,2.80
2022-12-18T07:51:47.403Z,3.20
2022-12-18T07:54:14.155Z,3.15
2022-12-18T07:56:41.177Z,2.97
2022-12-18T07:59:07.884Z,3.53
2022-12-18T08:01:35.091Z,3.20
2022-12-18T08:04:01.926Z,3.70
2022-12-18T08:06:28.595Z,3.22
2022-12-18T08:08:56.850Z,3.38
2022-12-18T08:11:26.040Z,3.42
2022-12-18T08:13:53.253Z,3.17
2022-12-18T08:16:20.892Z,3.60
2022-12-18T08:18:48.642Z,3.15
2022-12-18T08:21:20.438Z,3.70
2022-12-18T08:23:48.597Z,3.40
2022-12-18T08:26:16.526Z,3.40
2022-12-18T08:28:43.500Z,3.72
2022-12-18T08:31:10.806Z,4.05
2022-12-18T08:33:39.418Z,3.30
2022-12-18T08:36:07.059Z,5.13
2022-12-18T08:38:34.847Z,4.68
2022-12-18T08:41:02.289Z,4.20
2022-12-18T08:43:30.220Z,4.28
2022-12-18T08:45:58.021Z,3.90
2022-12-18T08:48:24.850Z,4.07
2022-12-18T08:50:58.692Z,4.15
2022-12-18T08:53:32.779Z,3.85
2022-12-18T08:56:02.371Z,3.55
2022-12-18T08:58:29.161Z,3.95
2022-12-18T09:01:00.326Z,3.33
2022-12-18T09:03:27.045Z,3.50
2022-12-18T09:05:53.746Z,2.90
2022-12-18T09:08:20.542Z,3.15
2022-12-18T09:10:50.470Z,3.17
2022-12-18T09:13:18.113Z,2.95
2022-12-18T09:15:47.395Z,3.17
2022-12-18T09:18:15.646Z,3.35
2022-12-18T09:20:42.587Z,3.17
2022-12-18T09:23:12.911Z,2.63
2022-12-18T09:28:15.163Z,2.60
2022-12-18T09:30:45.043Z,2.97
2022-12-18T09:33:11.796Z,2.95
2022-12-18T09:35:43.877Z,3.58
2022-12-18T09:38:19.574Z,2.60
2022-12-18T09:40:50.328Z,2.55
2022-12-18T09:43:40.965Z,2.33
2022-12-18T09:48:46.217Z,2.30
2022-12-18T09:51:20.898Z,2.78
2022-12-18T09:54:00.553Z,2.97
2022-12-18T09:56:31.695Z,2.70
2022-12-18T09:58:59.578Z,2.33
2022-12-18T10:01:37.674Z,2.50
2022-12-18T10:04:10.655Z,2.22
2022-12-18T10:06:47.298Z,2.67
2022-12-18T10:09:44.377Z,2.30
2022-12-18T10:12:47.220Z,2.38
2022-12-18T10:15:30.813Z,2.22
2022-12-18T10:18:41.321Z,2.50
2022-12-18T10:24:12.326Z,2.55
2022-12-18T10:26:39.622Z,2.63
2022-12-18T10:29:14.229Z,2.38
2022-12-18T10:31:41.331Z,2.47
2022-12-18T10:34:26.181Z,2.30
2022-12-18T10:36:52.855Z,2.22
2022-12-18T10:39:25.608Z,2.65
2022-12-18T10:41:52.361Z,2.10
2022-12-18T10:44:24.031Z,2.78
2022-12-18T10:46:55.277Z,2.33
2022-12-18T10:49:31.403Z,2.28
2022-12-18T10:52:43.458Z,2.60
2022-12-18T10:55:18.644Z,2.50
2022-12-18T10:57:45.908Z,2.38
2022-12-18T11:00:26.196Z,2.17
2022-12-18T11:05:46.951Z,2.60
2022-12-18T11:08:22.435Z,2.33
2022-12-18T11:10:50.347Z,2.92
2022-12-18T11:13:21.829Z,2.25
2022-12-18T11:15:49.661Z,2.47
2022-12-18T11:18:26.153Z,2.20
2022-12-18T11:20:58.639Z,2.63
2022-12-18T11:23:27.032Z,2.50
2022-12-18T11:25:59.602Z,2.50
2022-12-18T11:28:27.822Z,2.22
2022-12-18T11:31:28.144Z,2.35
2022-12-18T11:34:31.268Z,2.40
2022-12-18T11:37:01.986Z,2.25
2022-12-18T11:39:38.438Z,2.30
2022-12-18T11:42:18.327Z,2.30
2022-12-18T11:45:16.597Z,2.35
2022-12-18T11:48:11.089Z,2.47
2022-12-18T11:50:37.671Z,2.40
2022-12-18T11:53:06.509Z,2.33
2022-12-18T11:55:54.593Z,2.35
2022-12-18T11:58:39.059Z,2.63
2022-12-18T12:01:20.724Z,2.75
2022-12-18T12:04:02.264Z,2.83
2022-12-18T12:06:47.403Z,2.80
2022-12-18T12:09:29.750Z,2.45
2022-12-18T12:12:24.129Z,2.60
2022-12-18T12:15:14.205Z,2.45
2022-12-18T12:18:14.127Z,2.03
2022-12-18T12:20:49.124Z,2.47
2022-12-18T12:23:42.444Z,3.20
2022-12-18T12:26:42.730Z,2.42
2022-12-18T12:29:21.724Z,3.42
2022-12-18T12:32:18.634Z,3.13
2022-12-18T12:35:09.476Z,3.42
2022-12-18T12:37:45.594Z,3.33
2022-12-18T12:43:25.291Z,3.58
2022-12-18T12:45:57.281Z,3.22
2022-12-18T12:48:46.145Z,2.75
2022-12-18T12:51:42.474Z,3.08
2022-12-18T12:54:20.771Z,2.97
2022-12-18T12:56:58.620Z,3.42
2022-12-18T12:59:31.546Z,3.45
2022-12-18T13:02:21.843Z,3.80
2022-12-18T13:05:02.937Z,3.67
2022-12-18T13:10:19.719Z,4.07
2022-12-18T13:12:57.914Z,4.38
2022-12-18T13:15:31.625Z,4.47
2022-12-18T13:18:09.167Z,5.20
2022-12-18T13:20:55.222Z,4.57
2022-12-18T13:23:26.566Z,6.18
2022-12-18T13:26:08.426Z,5.70
2022-12-18T13:28:54.154Z,4.95
2022-12-18T13:31:42.395Z,5.75
2022-12-18T13:34:26.185Z,6.20
2022-12-18T13:36:58.361Z,5.05
2022-12-18T13:42:19.894Z,5.82
2022-12-18T13:44:48.008Z,5.97
2022-12-18T13:47:34.567Z,6.35
2022-12-18T13:50:10.143Z,6.25
2022-12-18T13:52:40.414Z,6.07
2022-12-18T13:55:17.417Z,5.18
2022-12-18T13:57:44.661Z,5.07
2022-12-18T14:00:23.571Z,5.72
2022-12-18T14:02:51.220Z,5.82
2022-12-18T14:05:30.033Z,5.53
